Time;durP1;ratioP1;P1;durP2;ratioP2;P2;SDS_P1;SDS_P2;PMS_P1;PMS_P2;Temp;Humidity;BMP_temperature;BMP_pressure;BME280_temperature;BME280_humidity;BME280_pressure;Samples;Min_cycle;Max_cycle;Signal;HPM_P1;HPM_P2
2023/04/27 00:01:06;;;;;;;;;;;11.20;78.50;;;-151.14;100.00;62537.16;4979760;28;19928;-87
2023/04/27 00:03:35;;;;;;;;;;;11.20;78.60;;;-151.14;100.00;62537.16;4995836;28;20235;-87
2023/04/27 00:06:04;;;;;;;;;;;11.20;78.50;;;-151.14;100.00;62537.16;4995175;28;19921;-88
2023/04/27 00:08:32;;;;;;;;;;;11.20;78.60;;;-151.14;100.00;62537.16;4995654;28;19921;-88
2023/04/27 00:11:00;;;;;;;;;;;11.20;78.40;;;-151.14;100.00;62537.16;4979007;28;19921;-88
2023/04/27 00:13:28;;;;;;;;;;;11.20;78.40;;;-151.14;100.00;62537.16;4995664;28;20116;-88
2023/04/27 00:15:59;;;;;;;;;;;11.20;78.40;;;-151.14;100.00;62537.16;4995116;28;19922;-87
2023/04/27 00:18:27;;;;;;;;;;;11.20;78.40;;;-151.14;100.00;62537.16;4995359;28;19928;-87
2023/04/27 00:20:55;;;;;;;;;;;11.20;78.50;;;-151.14;100.00;62537.16;4995692;28;20121;-88
2023/04/27 00:23:25;;;;;;;;;;;11.20;78.70;;;-151.14;100.00;62537.16;5011924;28;20094;-88
2023/04/27 00:25:53;;;;;;;;;;;11.20;78.60;;;-151.14;100.00;62537.16;4978618;28;19922;-88
2023/04/27 00:28:21;;;;;;;;;;;11.20;78.40;;;-151.14;100.00;62537.16;4995833;28;19921;-88
2023/04/27 00:30:52;;;;;;;;;;;11.20;78.60;;;-151.14;100.00;62537.16;5012805;28;20236;-87
2023/04/27 00:33:21;;;;;;;;;;;11.20;78.60;;;-151.14;100.00;62537.16;5012741;28;19921;-87
2023/04/27 00:35:49;;;;;;;;;;;11.20;78.50;;;-151.14;100.00;62537.16;4994641;28;19922;-88
2023/04/27 00:38:17;;;;;;;;;;;11.20;78.60;;;-151.14;100.00;62537.16;4979062;28;19921;-88
2023/04/27 00:40:46;;;;;;;;;;;11.20;78.50;;;-151.14;100.00;62537.16;4979039;28;19922;-88
2023/04/27 00:43:15;;;;;;;;;;;11.20;78.50;;;-151.14;100.00;62537.16;4979055;28;19921;-87
2023/04/27 00:45:43;;;;;;;;;;;11.10;78.50;;;-151.14;100.00;62537.16;4977758;28;19928;-87
2023/04/27 00:48:11;;;;;;;;;;;11.10;78.60;;;-151.14;100.00;62537.16;4979035;28;19921;-87
2023/04/27 00:50:39;;;;;;;;;;;11.10;78.50;;;-151.14;100.00;62537.16;4978826;28;19927;-88
2023/04/27 00:53:08;;;;;;;;;;;11.10;78.70;;;-151.14;100.00;62537.16;4995003;28;19922;-87
2023/04/27 00:55:35;;;;;;;;;;;11.10;78.50;;;-151.14;100.00;62537.16;4978232;28;19922;-88
2023/04/27 00:58:05;;;;;;;;;;;11.10;78.80;;;-151.14;100.00;62537.16;4978868;28;19921;-87
2023/04/27 01:00:35;;;;;;;;;;;11.10;78.70;;;-151.14;100.00;62537.16;4994751;28;20235;-88
2023/04/27 01:03:04;;;;;;;;;;;11.10;78.60;;;-151.14;100.00;62537.16;4978878;28;19928;-87
2023/04/27 01:05:32;;;;;;;;;;;11.10;78.50;;;-151.14;100.00;62537.16;4978019;28;19922;-88
2023/04/27 01:08:00;;;;;;;;;;;11.10;78.70;;;-151.14;100.00;62537.16;4978674;28;20090;-87
2023/04/27 01:10:28;;;;;;;;;;;11.10;78.90;;;-151.14;100.00;62537.16;4995022;28;19921;-87
2023/04/27 01:12:57;;;;;;;;;;;11.10;78.70;;;-151.14;100.00;62537.16;4994685;28;20228;-88
2023/04/27 01:15:26;;;;;;;;;;;11.10;78.80;;;-151.14;100.00;62537.16;4977960;28;19921;-87
2023/04/27 01:17:58;;;;;;;;;;;11.10;78.90;;;-151.14;100.00;62537.16;4978254;28;19928;-88
2023/04/27 01:20:29;;;;;;;;;;;11.10;78.70;;;-151.14;100.00;62537.16;5011993;28;19922;-87
2023/04/27 01:22:57;;;;;;;;;;;11.10;78.70;;;-151.14;100.00;62537.16;4994781;28;19922;-87
2023/04/27 01:25:26;;;;;;;;;;;11.10;78.70;;;-151.14;100.00;62537.16;4994257;28;19928;-87
2023/04/27 01:27:55;;;;;;;;;;;11.10;78.60;;;-151.14;100.00;62537.16;4978353;28;19922;-87
2023/04/27 01:30:23;;;;;;;;;;;11.10;78.50;;;-151.14;100.00;62537.16;4994456;28;19921;-87
2023/04/27 01:32:51;;;;;;;;;;;11.10;78.50;;;-151.14;100.00;62537.16;4994663;28;19921;-88
2023/04/27 01:35:20;;;;;;;;;;;11.00;78.50;;;-151.14;100.00;62537.16;4977578;28;19944;-88
2023/04/27 01:37:48;;;;;;;;;;;11.00;78.70;;;-151.14;100.00;62537.16;4994184;28;19921;-87
2023/04/27 01:40:19;;;;;;;;;;;11.10;78.80;;;-151.14;100.00;62537.16;4994619;28;19922;-87
2023/04/27 01:42:48;;;;;;;;;;;11.00;78.50;;;-151.14;100.00;62537.16;4978295;28;19922;-87
2023/04/27 01:45:16;;;;;;;;;;;11.00;78.40;;;-151.14;100.00;62537.16;4977654;28;20205;-87
2023/04/27 01:47:44;;;;;;;;;;;11.00;78.40;;;-151.14;100.00;62537.16;4978151;28;20117;-87
2023/04/27 01:50:12;;;;;;;;;;;11.10;78.70;;;-151.14;100.00;62537.16;4994306;28;19941;-87
2023/04/27 01:52:40;;;;;;;;;;;11.00;78.70;;;-151.14;100.00;62537.16;5011593;28;20106;-87
2023/04/27 01:55:09;;;;;;;;;;;11.00;78.80;;;-151.14;100.00;62537.16;4993733;28;19922;-87
2023/04/27 01:57:38;;;;;;;;;;;11.00;78.60;;;-151.14;100.00;62537.16;4996097;28;19928;-86
2023/04/27 02:00:09;;;;;;;;;;;11.00;78.60;;;-151.14;100.00;62537.16;4997809;28;19926;-87
2023/04/27 02:02:52;;;;;;;;;;;11.00;78.60;;;-151.14;100.00;62537.16;4997457;28;19925;-88
2023/04/27 02:05:20;;;;;;;;;;;11.00;78.80;;;-151.14;100.00;62537.16;4997195;28;19927;-87
2023/04/27 02:07:49;;;;;;;;;;;11.00;78.60;;;-151.14;100.00;62537.16;4997562;28;20227;-87
2023/04/27 02:10:17;;;;;;;;;;;11.00;78.70;;;-151.14;100.00;62537.16;5013907;28;19928;-87
2023/04/27 02:12:46;;;;;;;;;;;11.00;78.80;;;-151.14;100.00;62537.16;4981153;28;20337;-87
2023/04/27 02:15:15;;;;;;;;;;;11.00;78.70;;;-151.14;100.00;62537.16;4996651;28;20002;-88
2023/04/27 02:17:44;;;;;;;;;;;11.00;78.60;;;-151.14;100.00;62537.16;4981249;28;19921;-88
2023/04/27 02:20:14;;;;;;;;;;;11.00;78.70;;;-151.14;100.00;62537.16;4981332;28;19921;-88
2023/04/27 02:22:43;;;;;;;;;;;11.00;78.60;;;-151.14;100.00;62537.16;4997244;28;19921;-87
2023/04/27 02:25:11;;;;;;;;;;;10.90;78.50;;;-151.14;100.00;62537.16;4996888;28;20116;-87
2023/04/27 02:27:39;;;;;;;;;;;11.00;78.50;;;-151.14;100.00;62537.16;4980921;28;20248;-87
2023/04/27 02:30:08;;;;;;;;;;;10.90;78.60;;;-151.14;100.00;62537.16;4981092;28;19944;-87
2023/04/27 02:32:38;;;;;;;;;;;10.90;78.60;;;-151.14;100.00;62537.16;4980069;28;19928;-88
2023/04/27 02:35:07;;;;;;;;;;;10.90;78.70;;;-151.14;100.00;62537.16;4979905;28;19921;-87
2023/04/27 02:37:35;;;;;;;;;;;10.90;78.70;;;-151.14;100.00;62537.16;4996983;28;19927;-87
2023/04/27 02:40:06;;;;;;;;;;;10.90;78.70;;;-151.14;100.00;62537.16;5013774;28;19921;-87
2023/04/27 02:42:34;;;;;;;;;;;10.90;78.60;;;-151.14;100.00;62537.16;4996897;28;19928;-88
2023/04/27 02:45:02;;;;;;;;;;;10.90;78.60;;;-151.14;100.00;62537.16;4980360;28;19921;-88
2023/04/27 02:47:31;;;;;;;;;;;10.90;78.50;;;-151.14;100.00;62537.16;5013309;28;20252;-87
2023/04/27 02:50:00;;;;;;;;;;;10.90;78.50;;;-151.14;100.00;62537.16;4980856;28;19928;-88
2023/04/27 02:52:28;;;;;;;;;;;10.90;78.40;;;-151.14;100.00;62537.16;4980785;28;19921;-87
2023/04/27 02:54:56;;;;;;;;;;;10.90;78.70;;;-151.14;100.00;62537.16;4996261;28;19928;-87
2023/04/27 02:57:25;;;;;;;;;;;10.90;78.50;;;-151.14;100.00;62537.16;5012854;28;19928;-86
2023/04/27 02:59:53;;;;;;;;;;;10.90;79.10;;;-151.14;100.00;62537.16;4980750;28;19922;-88
2023/04/27 03:02:21;;;;;;;;;;;10.90;78.50;;;-151.14;100.00;62537.16;4980675;28;19922;-88
2023/04/27 03:04:53;;;;;;;;;;;10.90;78.50;;;-151.14;100.00;62537.16;4980002;28;19928;-87
2023/04/27 03:07:23;;;;;;;;;;;10.90;78.40;;;-151.14;100.00;62537.16;4980156;28;19921;-87
2023/04/27 03:09:51;;;;;;;;;;;10.90;78.50;;;-151.14;100.00;62537.16;4980420;28;19944;-87
2023/04/27 03:12:19;;;;;;;;;;;10.90;78.60;;;-151.14;100.00;62537.16;4996843;28;19922;-87
2023/04/27 03:14:47;;;;;;;;;;;10.90;78.70;;;-151.14;100.00;62537.16;4995925;28;19928;-88
2023/04/27 03:17:15;;;;;;;;;;;10.90;78.70;;;-151.14;100.00;62537.16;4980129;28;19936;-88
2023/04/27 03:19:43;;;;;;;;;;;10.80;78.40;;;-151.14;100.00;62537.16;4980459;28;19921;-87
2023/04/27 03:22:11;;;;;;;;;;;10.80;78.50;;;-151.14;100.00;62537.16;4996392;28;19922;-87
2023/04/27 03:24:41;;;;;;;;;;;10.80;78.50;;;-151.14;100.00;62537.16;4995625;28;19928;-87
2023/04/27 03:27:10;;;;;;;;;;;10.80;78.50;;;-151.14;100.00;62537.16;4979971;28;19922;-86
2023/04/27 03:29:38;;;;;;;;;;;10.80;78.40;;;-151.14;100.00;62537.16;5013674;28;19928;-87
2023/04/27 03:32:06;;;;;;;;;;;10.80;78.40;;;-151.14;100.00;62537.16;4980109;28;19928;-86
2023/04/27 03:34:35;;;;;;;;;;;10.80;78.30;;;-151.14;100.00;62537.16;4979298;28;19921;-87
2023/04/27 03:37:03;;;;;;;;;;;10.80;78.40;;;-151.14;100.00;62537.16;4979966;28;19921;-87
2023/04/27 03:39:31;;;;;;;;;;;10.80;78.40;;;-151.14;100.00;62537.16;4979861;28;19937;-88
2023/04/27 03:42:01;;;;;;;;;;;10.80;78.40;;;-151.14;100.00;62537.16;4996053;28;19944;-87
2023/04/27 03:44:30;;;;;;;;;;;10.80;78.40;;;-151.14;100.00;62537.16;4979196;28;19921;-88
2023/04/27 03:46:59;;;;;;;;;;;10.80;78.40;;;-151.14;100.00;62537.16;4995893;28;19927;-87
2023/04/27 03:49:27;;;;;;;;;;;10.80;78.20;;;-151.14;100.00;62537.16;5012342;28;20197;-87
2023/04/27 03:51:55;;;;;;;;;;;10.80;78.20;;;-151.14;100.00;62537.16;4979752;28;19922;-88
2023/04/27 03:54:24;;;;;;;;;;;10.80;78.20;;;-151.14;100.00;62537.16;5012673;28;20106;-87
2023/04/27 03:56:52;;;;;;;;;;;10.80;78.20;;;-151.14;100.00;62537.16;4995681;28;20212;-85
2023/04/27 03:59:22;;;;;;;;;;;10.80;78.20;;;-151.14;100.00;62537.16;4996013;28;19928;-87
2023/04/27 04:01:51;;;;;;;;;;;10.80;78.00;;;-151.14;100.00;62537.16;4979653;28;19936;-86
2023/04/27 04:04:20;;;;;;;;;;;10.90;77.90;;;-151.14;100.00;62537.16;4995269;28;19927;-88
2023/04/27 04:06:48;;;;;;;;;;;10.90;77.90;;;-151.14;100.00;62537.16;4979529;28;20316;-87
2023/04/27 04:09:16;;;;;;;;;;;10.90;77.70;;;-151.14;100.00;62537.16;4979253;28;19922;-87
2023/04/27 04:11:44;;;;;;;;;;;11.00;77.50;;;-151.14;100.00;62537.16;4995537;28;19921;-87
2023/04/27 04:14:15;;;;;;;;;;;11.00;77.10;;;-151.14;100.00;62537.16;4994917;28;19927;-86
2023/04/27 04:16:45;;;;;;;;;;;11.00;77.10;;;-151.14;100.00;62537.16;4979365;28;19921;-86
2023/04/27 04:19:14;;;;;;;;;;;11.10;77.10;;;-151.14;100.00;62537.16;4994760;28;19921;-86
2023/04/27 04:21:42;;;;;;;;;;;11.10;76.80;;;-151.14;100.00;62537.16;4979333;28;19922;-86
2023/04/27 04:24:11;;;;;;;;;;;11.10;76.40;;;-151.14;100.00;62537.16;5011064;28;19921;-86
2023/04/27 04:26:39;;;;;;;;;;;11.10;76.50;;;-151.14;100.00;62537.16;5012924;28;19925;-86
2023/04/27 04:29:08;;;;;;;;;;;11.20;76.60;;;-151.14;100.00;62537.16;4995543;28;19922;-86
2023/04/27 04:31:36;;;;;;;;;;;11.20;76.90;;;-151.14;100.00;62537.16;4995486;28;19921;-86
2023/04/27 04:34:07;;;;;;;;;;;11.20;76.80;;;-151.14;100.00;62537.16;4978517;28;19930;-86
2023/04/27 04:36:36;;;;;;;;;;;11.20;76.70;;;-151.14;100.00;62537.16;4978986;28;19928;-89
2023/04/27 04:39:06;;;;;;;;;;;11.30;76.50;;;-151.14;100.00;62537.16;4981278;28;20209;-87
2023/04/27 04:41:34;;;;;;;;;;;11.30;76.30;;;-151.14;100.00;62537.16;5011672;28;19921;-85
2023/04/27 04:44:02;;;;;;;;;;;11.30;76.40;;;-151.14;100.00;62537.16;4994552;28;19928;-86
2023/04/27 04:46:31;;;;;;;;;;;11.30;76.40;;;-151.14;100.00;62537.16;4978881;28;19944;-86
2023/04/27 04:49:01;;;;;;;;;;;11.40;76.40;;;-151.14;100.00;62537.16;4995165;28;20235;-86
2023/04/27 04:51:30;;;;;;;;;;;11.40;76.60;;;-151.14;100.00;62537.16;5011435;28;19928;-85
2023/04/27 04:53:58;;;;;;;;;;;11.40;76.70;;;-151.14;100.00;62537.16;4994835;28;19921;-86
2023/04/27 04:56:26;;;;;;;;;;;11.40;76.50;;;-151.14;100.00;62537.16;4978352;28;19921;-86
2023/04/27 04:58:56;;;;;;;;;;;11.40;76.60;;;-151.14;100.00;62537.16;4976579;28;19928;-86
2023/04/27 05:01:24;;;;;;;;;;;11.40;76.40;;;-151.14;100.00;62537.16;4975418;28;19922;-87
2023/04/27 05:03:52;;;;;;;;;;;11.40;76.50;;;-151.14;100.00;62537.16;4975545;28;19922;-87
2023/04/27 05:09:28;;;;;;;;;;;11.40;76.60;;;-151.14;100.00;62537.16;4986762;28;20223;-86
2023/04/27 05:11:56;;;;;;;;;;;11.40;76.50;;;-151.14;100.00;62537.16;5011264;28;19947;-86
2023/04/27 05:14:24;;;;;;;;;;;11.40;76.60;;;-151.14;100.00;62537.16;4994091;28;19948;-86
2023/04/27 05:16:52;;;;;;;;;;;11.40;76.80;;;-151.14;100.00;62537.16;4993640;28;19922;-86
2023/04/27 05:19:20;;;;;;;;;;;11.40;76.50;;;-151.14;100.00;62537.16;4975281;28;19922;-86
2023/04/27 05:21:48;;;;;;;;;;;11.40;76.70;;;-151.14;100.00;62537.16;4991367;28;19922;-86
2023/04/27 05:24:16;;;;;;;;;;;11.40;76.70;;;-151.14;100.00;62537.16;4990671;28;19922;-86
2023/04/27 05:26:46;;;;;;;;;;;11.40;76.70;;;-151.14;100.00;62537.16;5007580;28;19928;-86
2023/04/27 05:29:14;;;;;;;;;;;11.40;76.70;;;-151.14;100.00;62537.16;4991423;28;19928;-86
2023/04/27 05:31:42;;;;;;;;;;;11.40;76.80;;;-151.14;100.00;62537.16;4991135;28;19922;-86
2023/04/27 05:34:10;;;;;;;;;;;11.30;76.80;;;-151.14;100.00;62537.16;4990489;28;19928;-86
2023/04/27 05:36:39;;;;;;;;;;;11.30;76.90;;;-151.14;100.00;62537.16;4991017;28;20365;-87
2023/04/27 05:39:07;;;;;;;;;;;11.40;77.00;;;-151.14;100.00;62537.16;4991130;28;19922;-86
2023/04/27 05:41:35;;;;;;;;;;;11.30;76.90;;;-151.14;100.00;62537.16;5007409;28;19921;-86
2023/04/27 05:44:04;;;;;;;;;;;11.40;76.80;;;-151.14;100.00;62537.16;4990599;28;19928;-86
2023/04/27 05:46:32;;;;;;;;;;;11.40;76.80;;;-151.14;100.00;62537.16;4991079;28;19928;-86
2023/04/27 05:49:00;;;;;;;;;;;11.40;76.80;;;-151.14;100.00;62537.16;4991203;28;20231;-86
2023/04/27 05:51:28;;;;;;;;;;;11.40;76.70;;;-151.14;100.00;62537.16;4974755;28;19922;-86
2023/04/27 05:53:58;;;;;;;;;;;11.40;76.70;;;-151.14;100.00;62537.16;4974885;28;20099;-87
2023/04/27 05:56:26;;;;;;;;;;;11.40;76.70;;;-151.14;100.00;62537.16;4990614;28;19922;-87
2023/04/27 05:58:54;;;;;;;;;;;11.50;76.80;;;-151.14;100.00;62537.16;4992082;28;20121;-87
2023/04/27 06:01:24;;;;;;;;;;;11.40;76.60;;;-151.14;100.00;62537.16;4990814;28;19922;-87
2023/04/27 06:03:52;;;;;;;;;;;11.40;76.60;;;-151.14;100.00;62537.16;5007324;28;19922;-87
2023/04/27 06:06:20;;;;;;;;;;;11.40;76.60;;;-151.14;100.00;62537.16;4990066;28;19928;-87
2023/04/27 06:08:48;;;;;;;;;;;11.50;76.70;;;-151.14;100.00;62537.16;4990800;28;19932;-87
2023/04/27 06:11:16;;;;;;;;;;;11.50;76.60;;;-151.14;100.00;62537.16;5006943;28;19929;-87
2023/04/27 06:13:45;;;;;;;;;;;11.50;76.70;;;-151.14;100.00;62537.16;4974675;28;20237;-87
2023/04/27 06:16:13;;;;;;;;;;;11.50;76.60;;;-151.14;100.00;62537.16;4989942;28;19922;-86
2023/04/27 06:18:42;;;;;;;;;;;11.50;76.50;;;-151.14;100.00;62537.16;4994141;28;19921;-86
2023/04/27 06:21:10;;;;;;;;;;;11.50;76.40;;;-151.14;100.00;62537.16;4988098;28;19928;-86
2023/04/27 06:23:38;;;;;;;;;;;11.60;76.40;;;-151.14;100.00;62537.16;4993822;28;19928;-86
2023/04/27 06:26:06;;;;;;;;;;;11.60;76.50;;;-151.14;100.00;62537.16;5009497;28;19922;-86
2023/04/27 06:28:34;;;;;;;;;;;11.60;76.60;;;-151.14;100.00;62537.16;4977760;28;20039;-86
2023/04/27 06:31:02;;;;;;;;;;;11.60;76.50;;;-151.14;100.00;62537.16;4993723;28;20245;-86
2023/04/27 06:33:30;;;;;;;;;;;11.60;76.40;;;-151.14;100.00;62537.16;4977794;28;20342;-86
2023/04/27 06:36:00;;;;;;;;;;;11.60;76.50;;;-151.14;100.00;62537.16;4992888;28;19921;-86
2023/04/27 06:38:29;;;;;;;;;;;11.70;76.50;;;-151.14;100.00;62537.16;4977550;28;19928;-87
2023/04/27 06:40:57;;;;;;;;;;;11.70;76.50;;;-151.14;100.00;62537.16;5010955;28;19922;-86
2023/04/27 06:43:25;;;;;;;;;;;11.70;76.50;;;-151.14;100.00;62537.16;4995566;28;19928;-86
2023/04/27 06:45:53;;;;;;;;;;;11.70;76.40;;;-151.14;100.00;62537.16;4980069;28;19922;-87
2023/04/27 06:48:21;;;;;;;;;;;11.70;76.40;;;-151.14;100.00;62537.16;4996903;28;19928;-86
2023/04/27 06:50:49;;;;;;;;;;;11.80;76.20;;;-151.14;100.00;62537.16;4996791;28;20119;-86
2023/04/27 06:53:18;;;;;;;;;;;11.80;76.20;;;-151.14;100.00;62537.16;4980757;28;19935;-86
2023/04/27 06:55:46;;;;;;;;;;;11.80;76.20;;;-151.14;100.00;62537.16;4996185;28;19921;-86
2023/04/27 06:58:14;;;;;;;;;;;11.80;76.20;;;-151.14;100.00;62537.16;4996817;28;19928;-87
2023/04/27 07:00:42;;;;;;;;;;;11.80;76.00;;;-151.14;100.00;62537.16;4996697;28;19928;-87
2023/04/27 07:03:11;;;;;;;;;;;11.80;76.00;;;-151.14;100.00;62537.16;4996543;28;19921;-86
2023/04/27 07:05:39;;;;;;;;;;;11.90;76.10;;;-151.14;100.00;62537.16;4979901;28;19925;-86
2023/04/27 07:08:07;;;;;;;;;;;11.90;76.00;;;-151.14;100.00;62537.16;5012582;28;19928;-87
2023/04/27 07:10:36;;;;;;;;;;;11.90;75.90;;;-151.14;100.00;62537.16;4980373;28;19922;-86
2023/04/27 07:13:04;;;;;;;;;;;11.90;75.70;;;-151.14;100.00;62537.16;4980254;28;20124;-86
2023/04/27 07:15:32;;;;;;;;;;;11.90;75.60;;;-151.14;100.00;62537.16;5012501;28;19928;-86
2023/04/27 07:18:01;;;;;;;;;;;11.90;76.40;;;-151.14;100.00;62537.16;4976878;28;19922;-86
2023/04/27 07:20:29;;;;;;;;;;;11.90;75.40;;;-151.14;100.00;62537.16;4976971;28;19929;-86
2023/04/27 07:22:57;;;;;;;;;;;11.90;75.30;;;-151.14;100.00;62537.16;4976837;28;19922;-86
2023/04/27 07:25:25;;;;;;;;;;;12.00;75.20;;;-151.14;100.00;62537.16;4976322;28;19928;-86
2023/04/27 07:27:55;;;;;;;;;;;12.00;75.20;;;-151.14;100.00;62537.16;4976796;28;19926;-86
2023/04/27 07:30:23;;;;;;;;;;;12.00;75.20;;;-151.14;100.00;62537.16;4993136;28;19929;-87
2023/04/27 07:32:53;;;;;;;;;;;12.00;75.10;;;-151.14;100.00;62537.16;4992824;28;20206;-86
2023/04/27 07:35:21;;;;;;;;;;;12.00;75.00;;;-151.14;100.00;62537.16;4992435;28;19922;-86
2023/04/27 07:37:50;;;;;;;;;;;12.10;75.00;;;-151.14;100.00;62537.16;4992642;28;19922;-86
2023/04/27 07:40:22;;;;;;;;;;;12.10;75.10;;;-151.14;100.00;62537.16;4992977;28;19929;-86
2023/04/27 07:42:50;;;;;;;;;;;12.10;75.00;;;-151.14;100.00;62537.16;4994077;28;19921;-87
2023/04/27 07:45:21;;;;;;;;;;;12.10;74.90;;;-151.14;100.00;62537.16;4992390;28;20121;-86
2023/04/27 07:47:49;;;;;;;;;;;12.10;74.90;;;-151.14;100.00;62537.16;4992808;28;19928;-86
2023/04/27 07:50:23;;;;;;;;;;;12.10;74.90;;;-151.14;100.00;62537.16;4992721;28;19929;-86
2023/04/27 07:52:51;;;;;;;;;;;12.10;74.80;;;-151.14;100.00;62537.16;4976876;28;19922;-86
2023/04/27 07:55:20;;;;;;;;;;;12.10;74.80;;;-151.14;100.00;62537.16;5007450;28;19945;-87
2023/04/27 07:57:48;;;;;;;;;;;12.10;74.80;;;-151.14;100.00;62537.16;4992429;28;19922;-86
2023/04/27 08:00:17;;;;;;;;;;;12.10;74.70;;;-151.14;100.00;62537.16;4992905;28;19922;-87
2023/04/27 08:02:46;;;;;;;;;;;12.10;74.60;;;-151.14;100.00;62537.16;4976431;28;20341;-88
2023/04/27 08:05:14;;;;;;;;;;;12.20;74.60;;;-151.14;100.00;62537.16;4991933;28;19928;-87
2023/04/27 08:07:42;;;;;;;;;;;12.20;74.50;;;-151.14;100.00;62537.16;4976246;28;20469;-87
2023/04/27 08:10:10;;;;;;;;;;;12.20;74.30;;;-151.14;100.00;62537.16;4992524;28;19922;-87
2023/04/27 08:12:38;;;;;;;;;;;12.20;74.30;;;-151.14;100.00;62537.16;4992398;28;19922;-88
2023/04/27 08:15:07;;;;;;;;;;;12.10;74.30;;;-151.14;100.00;62537.16;4991867;28;19944;-85
2023/04/27 08:17:37;;;;;;;;;;;12.10;74.30;;;-151.14;100.00;62537.16;4975826;28;19928;-86
2023/04/27 08:20:08;;;;;;;;;;;12.10;74.40;;;-151.14;100.00;62537.16;4976098;28;19928;-86
2023/04/27 08:22:36;;;;;;;;;;;12.10;74.60;;;-151.14;100.00;62537.16;4992231;28;19922;-86
2023/04/27 08:25:06;;;;;;;;;;;12.10;74.60;;;-151.14;100.00;62537.16;4991602;28;19929;-86
2023/04/27 08:27:34;;;;;;;;;;;12.10;74.60;;;-151.14;100.00;62537.16;4991900;28;20001;-87
2023/04/27 08:30:02;;;;;;;;;;;12.10;74.60;;;-151.14;100.00;62537.16;5008298;28;19944;-86
2023/04/27 08:32:31;;;;;;;;;;;12.10;74.70;;;-151.14;100.00;62537.16;4976147;28;19930;-87
2023/04/27 08:34:59;;;;;;;;;;;12.10;74.80;;;-151.14;100.00;62537.16;4991630;28;19921;-85
2023/04/27 08:37:29;;;;;;;;;;;12.10;74.80;;;-151.14;100.00;62537.16;4991856;28;19922;-86
2023/04/27 08:39:57;;;;;;;;;;;12.10;74.80;;;-151.14;100.00;62537.16;4975973;28;19928;-86
2023/04/27 08:42:25;;;;;;;;;;;12.10;75.00;;;-151.14;100.00;62537.16;4975805;28;19922;-86
2023/04/27 08:44:53;;;;;;;;;;;12.00;74.90;;;-151.14;100.00;62537.16;4975265;28;19922;-86
2023/04/27 08:47:21;;;;;;;;;;;12.00;74.90;;;-151.14;100.00;62537.16;4975578;28;19922;-86
2023/04/27 08:49:49;;;;;;;;;;;12.10;75.10;;;-151.14;100.00;62537.16;4975684;28;19929;-86
2023/04/27 08:52:17;;;;;;;;;;;12.10;75.10;;;-151.14;100.00;62537.16;4991876;28;20117;-87
2023/04/27 08:54:46;;;;;;;;;;;12.00;74.90;;;-151.14;100.00;62537.16;4991206;28;19928;-87
2023/04/27 08:57:15;;;;;;;;;;;12.10;75.10;;;-151.14;100.00;62537.16;4991483;28;19928;-88
2023/04/27 08:59:44;;;;;;;;;;;12.10;75.10;;;-151.14;100.00;62537.16;5008163;28;19922;-87
2023/04/27 09:02:21;;;;;;;;;;;12.10;75.00;;;-151.14;100.00;62537.16;4991706;28;20209;-86
2023/04/27 09:04:50;;;;;;;;;;;12.10;75.00;;;-151.14;100.00;62537.16;5007360;28;20217;-87
2023/04/27 09:07:18;;;;;;;;;;;12.00;74.80;;;-151.14;100.00;62537.16;4991297;28;19921;-87
2023/04/27 09:09:48;;;;;;;;;;;12.00;74.90;;;-151.14;100.00;62537.16;4975326;28;19944;-86
2023/04/27 09:12:17;;;;;;;;;;;12.00;74.90;;;-151.14;100.00;62537.16;4975534;28;19921;-87
2023/04/27 09:14:56;;;;;;;;;;;11.90;75.10;;;-151.14;100.00;62537.16;4974515;28;19922;-87
2023/04/27 09:17:27;;;;;;;;;;;11.90;75.20;;;-151.14;100.00;62537.16;4991127;28;19929;-87
2023/04/27 09:20:09;;;;;;;;;;;11.90;75.40;;;-151.14;100.00;62537.16;4974876;28;20211;-87
2023/04/27 09:22:44;;;;;;;;;;;11.80;75.30;;;-151.14;100.00;62537.16;4991636;28;19928;-87
2023/04/27 09:25:24;;;;;;;;;;;11.80;75.50;;;-151.14;100.00;62537.16;4974573;28;19922;-87
2023/04/27 09:27:52;;;;;;;;;;;11.80;75.50;;;-151.14;100.00;62537.16;4991303;28;19922;-87
2023/04/27 09:30:21;;;;;;;;;;;11.80;75.60;;;-151.14;100.00;62537.16;4991446;28;20118;-89
2023/04/27 09:32:51;;;;;;;;;;;11.80;75.70;;;-151.14;100.00;62537.16;4975070;28;19929;-87
2023/04/27 09:35:21;;;;;;;;;;;11.70;75.70;;;-151.14;100.00;62537.16;5006907;28;20129;-87
2023/04/27 09:37:50;;;;;;;;;;;11.70;75.80;;;-151.14;100.00;62537.16;4991074;28;19922;-87
2023/04/27 09:40:19;;;;;;;;;;;11.70;75.80;;;-151.14;100.00;62537.16;4975158;28;19928;-87
2023/04/27 09:42:49;;;;;;;;;;;11.70;75.90;;;-151.14;100.00;62537.16;4987827;28;20230;-87
2023/04/27 09:45:17;;;;;;;;;;;11.70;75.90;;;-151.14;100.00;62537.16;4955131;28;19922;-87
2023/04/27 09:47:45;;;;;;;;;;;11.70;75.90;;;-151.14;100.00;62537.16;4955634;28;19922;-87
2023/04/27 09:50:13;;;;;;;;;;;11.60;75.90;;;-151.14;100.00;62537.16;4971503;28;19936;-87
2023/04/27 09:52:42;;;;;;;;;;;11.60;75.80;;;-151.14;100.00;62537.16;4971663;28;19922;-87
2023/04/27 09:55:11;;;;;;;;;;;11.60;75.90;;;-151.14;100.00;62537.16;4954823;28;19922;-87
2023/04/27 09:57:43;;;;;;;;;;;11.60;76.00;;;-151.14;100.00;62537.16;4971495;28;19929;-87
2023/04/27 10:00:20;;;;;;;;;;;11.50;77.00;;;-151.14;100.00;62537.16;4971637;28;19922;-87
2023/04/27 10:02:53;;;;;;;;;;;11.50;76.10;;;-151.14;100.00;62537.16;4972548;28;20091;-87
2023/04/27 10:05:35;;;;;;;;;;;11.50;76.20;;;-151.14;100.00;62537.16;4972138;28;19922;-87
2023/04/27 10:08:04;;;;;;;;;;;11.50;76.40;;;-151.14;100.00;62537.16;4971352;28;19922;-87
2023/04/27 10:10:42;;;;;;;;;;;11.50;76.50;;;-151.14;100.00;62537.16;4955508;28;19930;-88
2023/04/27 10:13:23;;;;;;;;;;;11.50;76.50;;;-151.14;100.00;62537.16;4955433;28;19922;-88
2023/04/27 10:15:52;;;;;;;;;;;11.50;76.50;;;-151.14;100.00;62537.16;4954723;28;19922;-88
2023/04/27 10:18:30;;;;;;;;;;;11.50;76.50;;;-151.14;100.00;62537.16;4985131;28;19922;-88
2023/04/27 10:21:12;;;;;;;;;;;11.50;76.50;;;-151.14;100.00;62537.16;4994310;28;19928;-87
2023/04/27 10:23:47;;;;;;;;;;;11.50;77.30;;;-151.14;100.00;62537.16;4977814;28;19963;-86
2023/04/27 10:26:22;;;;;;;;;;;11.50;76.50;;;-151.14;100.00;62537.16;4977408;28;19930;-87
2023/04/27 10:28:58;;;;;;;;;;;11.50;76.40;;;-151.14;100.00;62537.16;4994072;28;19922;-87
2023/04/27 10:31:30;;;;;;;;;;;11.40;76.40;;;-151.14;100.00;62537.16;4994143;28;19921;-87
2023/04/27 10:34:08;;;;;;;;;;;11.50;76.60;;;-151.14;100.00;62537.16;4977537;28;19930;-87
2023/04/27 10:36:37;;;;;;;;;;;11.40;76.40;;;-151.14;100.00;62537.16;4995089;28;19922;-87
2023/04/27 10:39:15;;;;;;;;;;;11.40;76.40;;;-151.14;100.00;62537.16;4993703;28;19922;-86
2023/04/27 10:41:50;;;;;;;;;;;11.40;76.50;;;-151.14;100.00;62537.16;4977607;28;20217;-86
2023/04/27 10:44:19;;;;;;;;;;;11.40;76.50;;;-151.14;100.00;62537.16;4992996;28;19929;-88
2023/04/27 10:46:52;;;;;;;;;;;11.40;76.70;;;-151.14;100.00;62537.16;4993536;28;19922;-86
2023/04/27 10:49:20;;;;;;;;;;;11.40;76.70;;;-151.14;100.00;62537.16;4977481;28;19929;-87
2023/04/27 10:51:49;;;;;;;;;;;11.40;76.60;;;-151.14;100.00;62537.16;4993700;28;19928;-87
2023/04/27 10:54:17;;;;;;;;;;;11.40;76.60;;;-151.14;100.00;62537.16;4993039;28;19928;-86
2023/04/27 10:56:45;;;;;;;;;;;11.40;76.50;;;-151.14;100.00;62537.16;4977478;28;20121;-87
2023/04/27 10:59:13;;;;;;;;;;;11.40;76.50;;;-151.14;100.00;62537.16;4977320;28;19921;-87
2023/04/27 11:01:41;;;;;;;;;;;11.50;76.50;;;-151.14;100.00;62537.16;4993262;28;19928;-87
2023/04/27 11:04:11;;;;;;;;;;;11.40;76.30;;;-151.14;100.00;62537.16;4992995;28;19925;-88
2023/04/27 11:06:42;;;;;;;;;;;11.50;76.50;;;-151.14;100.00;62537.16;4993297;28;20210;-87